Time;durP1;ratioP1;P1;durP2;ratioP2;P2;SDS_P1;SDS_P2;PMS_P1;PMS_P2;Temp;Humidity;BMP_temperature;BMP_pressure;BME280_temperature;BME280_humidity;BME280_pressure;Samples;Min_cycle;Max_cycle;Signal;HPM_P1;HPM_P2
2020/12/10 00:00:12;;;;;;;39.50;14.73;;;2.90;99.90;;;;;;5058394;28;20197;-82
2020/12/10 00:02:39;;;;;;;38.33;14.68;;;2.80;99.90;;;;;;5046560;28;20201;-83
2020/12/10 00:05:07;;;;;;;44.25;14.75;;;2.80;99.90;;;;;;5056721;28;20213;-82
2020/12/10 00:07:33;;;;;;;38.97;13.57;;;2.80;99.90;;;;;;5043297;28;20670;-83
2020/12/10 00:09:59;;;;;;;37.25;13.27;;;2.80;99.90;;;;;;5060997;28;20198;-82
2020/12/10 00:12:25;;;;;;;42.35;14.55;;;2.80;99.90;;;;;;5058991;28;20232;-83
2020/12/10 00:14:53;;;;;;;40.50;14.57;;;2.80;99.90;;;;;;5054036;28;20209;-83
2020/12/10 00:17:27;;;;;;;39.35;14.55;;;2.80;99.90;;;;;;5062842;28;20192;-83
2020/12/10 00:19:54;;;;;;;41.92;14.35;;;2.80;99.90;;;;;;5059139;28;20213;-82
2020/12/10 00:22:20;;;;;;;46.15;14.88;;;2.80;99.90;;;;;;5055716;28;20236;-82
2020/12/10 00:24:47;;;;;;;40.65;14.30;;;2.80;99.90;;;;;;5055577;28;20721;-83
2020/12/10 00:27:23;;;;;;;43.25;14.40;;;2.80;99.90;;;;;;5060261;28;20967;-83
2020/12/10 00:29:58;;;;;;;41.08;14.02;;;2.70;99.90;;;;;;5057413;28;20263;-83
2020/12/10 00:32:27;;;;;;;38.72;13.85;;;2.80;99.90;;;;;;5044472;28;20246;-83
2020/12/10 00:35:06;;;;;;;43.63;14.80;;;2.70;99.90;;;;;;5040179;28;20197;-83
2020/12/10 00:37:34;;;;;;;44.78;14.25;;;2.70;99.90;;;;;;5060792;28;20205;-83
2020/12/10 00:40:00;;;;;;;48.97;15.32;;;2.70;99.90;;;;;;5041579;28;20295;-83
2020/12/10 00:42:26;;;;;;;40.53;14.65;;;2.70;99.90;;;;;;5058369;28;20201;-83
2020/12/10 00:44:51;;;;;;;43.55;15.68;;;2.70;99.90;;;;;;5038165;28;20205;-83
2020/12/10 00:47:18;;;;;;;40.72;14.85;;;2.70;99.90;;;;;;5060585;28;20232;-81
2020/12/10 00:49:45;;;;;;;46.90;15.35;;;2.70;99.90;;;;;;5058630;28;20250;-81
2020/12/10 00:52:12;;;;;;;42.80;14.63;;;2.70;99.90;;;;;;5059897;28;20200;-82
2020/12/10 00:54:37;;;;;;;37.03;14.13;;;2.60;99.90;;;;;;5044603;28;20193;-83
2020/12/10 00:57:07;;;;;;;43.42;14.55;;;2.70;99.90;;;;;;5040373;28;20211;-82
2020/12/10 00:59:50;;;;;;;39.45;13.23;;;2.60;99.90;;;;;;5054327;28;20585;-82
2020/12/10 01:02:16;;;;;;;42.90;14.48;;;2.60;99.90;;;;;;5041359;28;20348;-82
2020/12/10 01:04:42;;;;;;;39.28;14.73;;;2.60;99.90;;;;;;5041139;28;20197;-82
2020/12/10 01:07:08;;;;;;;45.78;14.30;;;2.60;99.90;;;;;;5059476;28;20217;-83
2020/12/10 01:09:36;;;;;;;38.15;12.60;;;2.60;99.90;;;;;;5060759;28;20228;-83
2020/12/10 01:12:04;;;;;;;34.42;12.40;;;2.60;99.90;;;;;;5060000;28;20221;-82
2020/12/10 01:14:30;;;;;;;37.97;12.60;;;2.60;99.90;;;;;;5055321;28;20203;-82
2020/12/10 01:16:56;;;;;;;37.72;13.43;;;2.60;99.90;;;;;;5037363;28;20287;-82
2020/12/10 01:19:22;;;;;;;33.00;12.48;;;2.50;99.90;;;;;;5056101;28;20312;-82
2020/12/10 01:21:47;;;;;;;40.75;13.10;;;2.50;99.90;;;;;;5037010;28;20190;-82
2020/12/10 01:24:13;;;;;;;34.00;12.25;;;2.50;99.90;;;;;;5036102;28;20207;-81
2020/12/10 01:26:39;;;;;;;33.13;11.75;;;2.60;99.90;;;;;;5036028;28;20659;-82
2020/12/10 01:29:05;;;;;;;35.15;12.40;;;2.50;99.90;;;;;;5054128;28;20193;-82
2020/12/10 01:31:31;;;;;;;32.80;12.05;;;2.50;99.90;;;;;;5038367;28;20276;-81
2020/12/10 01:33:57;;;;;;;34.58;12.45;;;2.60;99.90;;;;;;5061713;28;20330;-81
2020/12/10 01:36:24;;;;;;;36.63;12.55;;;2.60;99.90;;;;;;5059137;28;20193;-81
2020/12/10 01:38:50;;;;;;;33.60;12.80;;;2.50;99.90;;;;;;5042027;28;20197;-81
2020/12/10 01:41:16;;;;;;;33.15;12.38;;;2.50;99.90;;;;;;5049579;28;20246;-82
2020/12/10 01:43:43;;;;;;;41.95;13.43;;;2.50;99.90;;;;;;5060252;28;20276;-82
2020/12/10 01:46:09;;;;;;;37.75;12.85;;;2.50;99.90;;;;;;5054834;28;20200;-83
2020/12/10 01:48:35;;;;;;;31.90;12.57;;;2.50;99.90;;;;;;5040906;28;20633;-83
2020/12/10 01:51:02;;;;;;;38.65;13.65;;;2.50;99.90;;;;;;5055788;28;20206;-82
2020/12/10 01:53:28;;;;;;;39.55;12.85;;;2.50;99.90;;;;;;5046152;28;20221;-82
2020/12/10 01:55:54;;;;;;;40.63;13.38;;;2.50;99.90;;;;;;5057803;28;20197;-81
2020/12/10 01:58:20;;;;;;;42.60;13.75;;;2.40;99.90;;;;;;5037089;28;20294;-83
2020/12/10 02:00:46;;;;;;;34.58;12.80;;;2.40;99.90;;;;;;5058460;28;20217;-83
2020/12/10 02:03:11;;;;;;;37.35;13.00;;;2.40;99.90;;;;;;5045480;28;20266;-82
2020/12/10 02:05:42;;;;;;;38.50;13.90;;;2.40;99.90;;;;;;5036143;28;20198;-82
2020/12/10 02:08:08;;;;;;;38.63;13.75;;;2.40;99.90;;;;;;5055798;28;20207;-81
2020/12/10 02:10:34;;;;;;;34.30;12.85;;;2.40;99.90;;;;;;5054168;28;20191;-83
2020/12/10 02:12:59;;;;;;;33.95;13.07;;;2.40;99.90;;;;;;5040607;28;20234;-82
2020/12/10 02:15:25;;;;;;;34.72;12.45;;;2.30;99.90;;;;;;5042805;28;20197;-81
2020/12/10 02:17:54;;;;;;;37.50;14.30;;;2.30;99.90;;;;;;5044037;28;20276;-82
2020/12/10 02:20:21;;;;;;;35.75;12.80;;;2.40;99.90;;;;;;5033677;28;21340;-82
2020/12/10 02:22:57;;;;;;;37.22;13.18;;;2.30;99.90;;;;;;5042954;28;20282;-82
2020/12/10 02:25:22;;;;;;;37.67;12.10;;;2.30;99.90;;;;;;5041757;28;20205;-82
2020/12/10 02:27:48;;;;;;;36.72;12.38;;;2.30;99.90;;;;;;5039939;28;20194;-81
2020/12/10 02:30:14;;;;;;;44.75;13.70;;;2.30;99.90;;;;;;5035204;28;20659;-83
2020/12/10 02:32:39;;;;;;;35.05;13.25;;;2.30;99.90;;;;;;5036536;28;20247;-82
2020/12/10 02:35:05;;;;;;;37.72;13.40;;;2.30;99.90;;;;;;5034619;28;20194;-82
2020/12/10 02:37:31;;;;;;;38.28;13.55;;;2.30;99.90;;;;;;5043277;28;20205;-82
2020/12/10 02:39:57;;;;;;;34.20;11.73;;;2.30;99.90;;;;;;5037730;28;20205;-82
2020/12/10 02:42:23;;;;;;;36.90;11.80;;;2.30;99.90;;;;;;5039230;28;20200;-82
2020/12/10 02:44:49;;;;;;;31.67;12.07;;;2.30;99.90;;;;;;5035919;28;20206;-82
2020/12/10 02:47:14;;;;;;;36.33;12.60;;;2.30;99.90;;;;;;5036079;28;20193;-82
2020/12/10 02:49:40;;;;;;;42.97;14.25;;;2.30;99.90;;;;;;5031434;28;20200;-84
2020/12/10 02:52:06;;;;;;;33.28;12.52;;;2.30;99.90;;;;;;5050650;28;20193;-81
2020/12/10 02:54:31;;;;;;;35.13;12.90;;;2.30;99.90;;;;;;5037297;28;20790;-81
2020/12/10 02:56:59;;;;;;;38.78;12.48;;;2.30;99.90;;;;;;5038325;28;20339;-81
2020/12/10 02:59:25;;;;;;;29.58;12.48;;;2.30;99.90;;;;;;5038561;28;20201;-81
2020/12/10 03:01:53;;;;;;;43.17;13.30;;;2.20;99.90;;;;;;5034375;28;20708;-81
2020/12/10 03:04:19;;;;;;;40.97;13.95;;;2.20;99.90;;;;;;5040355;28;20246;-81
2020/12/10 03:06:45;;;;;;;37.15;12.15;;;2.20;99.90;;;;;;5038171;28;20597;-81
2020/12/10 03:09:11;;;;;;;40.90;13.48;;;2.30;99.90;;;;;;5038409;28;20201;-81
2020/12/10 03:11:36;;;;;;;35.63;12.32;;;2.20;99.90;;;;;;5041814;28;20555;-81
2020/12/10 03:14:02;;;;;;;43.03;13.55;;;2.20;99.90;;;;;;5058156;28;20208;-81
2020/12/10 03:16:28;;;;;;;38.03;13.73;;;2.30;99.90;;;;;;5055748;28;20201;-82
2020/12/10 03:18:53;;;;;;;33.33;12.57;;;2.30;99.90;;;;;;5036376;28;20201;-82
2020/12/10 03:21:19;;;;;;;36.70;13.68;;;2.30;99.90;;;;;;5055125;28;20239;-82
2020/12/10 03:23:45;;;;;;;37.70;13.25;;;2.20;99.90;;;;;;5053749;28;20269;-82
2020/12/10 03:26:11;;;;;;;37.88;12.77;;;2.30;99.90;;;;;;5044278;28;20565;-82
2020/12/10 03:28:48;;;;;;;39.10;12.63;;;2.20;99.90;;;;;;5038544;28;20572;-81
2020/12/10 03:31:21;;;;;;;35.33;12.77;;;2.30;99.90;;;;;;5042162;28;20205;-81
2020/12/10 03:33:47;;;;;;;36.40;12.93;;;2.20;99.90;;;;;;5049620;28;20232;-81
2020/12/10 03:36:13;;;;;;;40.42;13.77;;;2.20;99.90;;;;;;5053249;28;20217;-81
2020/12/10 03:38:38;;;;;;;41.13;13.82;;;2.20;99.90;;;;;;5060055;28;20190;-80
2020/12/10 03:41:06;;;;;;;48.70;14.38;;;2.20;99.90;;;;;;5043417;28;20201;-81
2020/12/10 03:43:31;;;;;;;34.05;12.63;;;2.20;99.90;;;;;;5040607;28;20194;-81
2020/12/10 03:45:57;;;;;;;36.90;13.52;;;2.30;99.90;;;;;;5044853;28;20213;-81
2020/12/10 03:48:23;;;;;;;38.67;13.63;;;2.30;99.90;;;;;;5040675;28;20520;-82
2020/12/10 03:50:49;;;;;;;33.85;13.00;;;2.20;99.90;;;;;;5043286;28;20198;-82
2020/12/10 03:53:15;;;;;;;35.25;13.10;;;2.20;99.90;;;;;;5036112;28;20190;-81
2020/12/10 03:55:40;;;;;;;40.03;14.20;;;2.20;99.90;;;;;;5055916;28;20201;-82
2020/12/10 03:58:06;;;;;;;33.60;13.38;;;2.20;99.90;;;;;;5044231;28;20202;-81
2020/12/10 04:00:32;;;;;;;36.17;12.30;;;2.20;99.90;;;;;;5042634;28;20686;-82
2020/12/10 04:02:57;;;;;;;39.67;13.27;;;2.20;99.90;;;;;;5052783;28;20438;-81
2020/12/10 04:05:23;;;;;;;35.75;12.40;;;2.20;99.90;;;;;;5057809;28;20205;-81
2020/12/10 04:07:49;;;;;;;31.35;12.82;;;2.20;99.90;;;;;;5046813;28;20197;-81
2020/12/10 04:10:14;;;;;;;32.20;11.57;;;2.20;99.90;;;;;;5038946;28;20220;-81
2020/12/10 04:12:40;;;;;;;41.83;13.65;;;2.20;99.90;;;;;;5042640;28;20232;-80
2020/12/10 04:15:06;;;;;;;36.88;13.05;;;2.20;99.90;;;;;;5044422;28;20693;-81
2020/12/10 04:17:31;;;;;;;37.65;12.88;;;2.30;99.90;;;;;;5057267;28;20200;-80
2020/12/10 04:19:57;;;;;;;36.10;12.40;;;2.20;99.90;;;;;;5045805;28;20602;-81
2020/12/10 04:22:23;;;;;;;35.80;12.88;;;2.30;99.90;;;;;;5043466;28;20194;-81
2020/12/10 04:24:48;;;;;;;35.38;12.77;;;2.30;99.90;;;;;;5050569;28;20210;-81
2020/12/10 04:27:14;;;;;;;42.13;13.88;;;2.20;99.90;;;;;;5036922;28;20325;-80
2020/12/10 04:29:39;;;;;;;34.20;12.40;;;2.20;99.90;;;;;;5051400;28;20202;-80
2020/12/10 04:32:05;;;;;;;38.75;13.55;;;2.20;99.90;;;;;;5038565;28;20623;-81
2020/12/10 04:34:31;;;;;;;35.10;13.70;;;2.30;99.90;;;;;;5036047;28;20198;-81
2020/12/10 04:36:56;;;;;;;37.28;12.45;;;2.30;99.90;;;;;;5036464;28;20672;-81
2020/12/10 04:39:22;;;;;;;39.25;12.70;;;2.30;99.90;;;;;;5041563;28;20201;-81
2020/12/10 04:41:49;;;;;;;35.55;12.85;;;2.20;99.90;;;;;;5053970;28;20194;-80
2020/12/10 04:44:14;;;;;;;30.25;11.63;;;2.20;99.90;;;;;;5034888;28;20202;-83
2020/12/10 04:46:41;;;;;;;42.40;12.45;;;2.20;99.90;;;;;;5038854;28;20581;-82
2020/12/10 04:49:07;;;;;;;35.28;12.75;;;2.20;99.90;;;;;;5056355;28;20284;-80
2020/12/10 04:51:34;;;;;;;38.58;13.10;;;2.30;99.90;;;;;;5037568;28;20179;-80
2020/12/10 04:54:03;;;;;;;37.88;12.55;;;2.20;99.90;;;;;;5040044;28;20391;-80
2020/12/10 04:56:29;;;;;;;31.83;12.25;;;2.30;99.90;;;;;;5037173;28;20197;-81
2020/12/10 04:58:55;;;;;;;35.30;13.35;;;2.30;99.90;;;;;;5054439;28;20275;-81
2020/12/10 05:01:22;;;;;;;37.63;13.00;;;2.20;99.90;;;;;;5036252;28;20225;-81
2020/12/10 05:03:47;;;;;;;31.08;11.57;;;2.20;99.90;;;;;;5035213;28;20189;-80
2020/12/10 05:06:14;;;;;;;28.27;11.57;;;2.20;99.90;;;;;;5033155;28;20197;-80
2020/12/10 05:08:41;;;;;;;33.28;12.32;;;2.20;99.90;;;;;;5036897;28;20198;-81
2020/12/10 05:11:08;;;;;;;37.70;12.30;;;2.20;99.90;;;;;;5056538;28;20200;-81
2020/12/10 05:13:35;;;;;;;37.45;12.20;;;2.30;99.90;;;;;;5059202;28;20205;-82
2020/12/10 05:16:00;;;;;;;37.55;12.98;;;2.30;99.90;;;;;;5043482;28;20575;-81
2020/12/10 05:18:27;;;;;;;35.92;12.35;;;2.40;99.90;;;;;;5045873;28;20334;-81
2020/12/10 05:20:57;;;;;;;32.92;11.43;;;2.40;99.90;;;;;;5054329;28;20205;-82
2020/12/10 05:23:40;;;;;;;34.72;12.23;;;2.40;99.90;;;;;;5051978;28;20551;-80
2020/12/10 05:26:08;;;;;;;30.75;12.18;;;2.40;99.90;;;;;;5056588;28;20710;-81
2020/12/10 05:28:50;;;;;;;29.35;11.80;;;2.30;99.90;;;;;;5040821;28;20193;-82
2020/12/10 05:31:21;;;;;;;29.90;11.90;;;2.30;99.90;;;;;;5042259;28;20193;-81
2020/12/10 05:34:00;;;;;;;28.52;11.15;;;2.20;99.90;;;;;;5044771;28;20190;-80
2020/12/10 05:36:29;;;;;;;30.60;11.65;;;2.30;99.90;;;;;;5043123;28;20236;-82
2020/12/10 05:39:04;;;;;;;26.42;11.32;;;2.30;99.90;;;;;;5035047;28;20201;-80
2020/12/10 05:41:33;;;;;;;33.75;11.27;;;2.40;99.90;;;;;;5049847;28;20875;-81
2020/12/10 05:44:21;;;;;;;31.48;11.50;;;2.40;99.90;;;;;;5052419;28;20196;-79
2020/12/10 05:46:51;;;;;;;28.45;11.40;;;2.40;99.90;;;;;;5053707;28;20266;-80
2020/12/10 05:49:17;;;;;;;30.77;11.15;;;2.40;99.90;;;;;;5062811;28;20192;-79
2020/12/10 05:51:45;;;;;;;31.33;11.23;;;2.30;99.90;;;;;;5060298;28;20196;-79
2020/12/10 05:54:12;;;;;;;28.85;10.82;;;2.30;99.90;;;;;;5065206;28;21009;-83
2020/12/10 05:56:53;;;;;;;31.73;10.80;;;2.40;99.90;;;;;;5071033;28;20205;-80
2020/12/10 05:59:20;;;;;;;33.38;11.25;;;2.30;99.90;;;;;;5052543;28;20943;-81
2020/12/10 06:01:47;;;;;;;26.77;10.90;;;2.30;99.90;;;;;;5069528;28;20227;-81
2020/12/10 06:04:13;;;;;;;32.33;11.05;;;2.30;99.90;;;;;;5062396;28;20208;-82
2020/12/10 06:06:39;;;;;;;28.92;10.48;;;2.30;99.90;;;;;;5038773;28;20685;-81
2020/12/10 06:09:06;;;;;;;39.53;11.55;;;2.40;99.90;;;;;;5058109;28;20185;-81
2020/12/10 06:11:33;;;;;;;37.85;12.63;;;2.40;99.90;;;;;;5056046;28;20217;-83
2020/12/10 06:14:06;;;;;;;31.77;11.35;;;2.40;99.90;;;;;;5044885;28;20741;-81
2020/12/10 06:16:34;;;;;;;31.35;11.45;;;2.40;99.90;;;;;;5059396;28;20197;-81
2020/12/10 06:19:05;;;;;;;28.48;10.95;;;2.30;99.90;;;;;;5053798;28;20229;-81
2020/12/10 06:21:34;;;;;;;27.35;10.40;;;2.30;99.90;;;;;;5035880;28;20838;-81
2020/12/10 06:24:01;;;;;;;31.80;10.88;;;2.30;99.90;;;;;;5054581;28;20728;-81
2020/12/10 06:26:27;;;;;;;30.35;11.75;;;2.40;99.90;;;;;;5042784;28;20218;-81
2020/12/10 06:29:18;;;;;;;29.00;11.05;;;2.40;99.90;;;;;;5058871;28;20649;-80
2020/12/10 06:32:07;;;;;;;28.85;10.57;;;2.40;99.90;;;;;;5045762;28;20288;-81
2020/12/10 06:34:35;;;;;;;29.52;11.45;;;2.30;99.90;;;;;;5057263;28;20197;-81
2020/12/10 06:37:16;;;;;;;31.95;11.35;;;2.40;99.90;;;;;;5038220;28;20292;-81
2020/12/10 06:39:42;;;;;;;28.33;10.98;;;2.40;99.90;;;;;;5059671;28;20209;-81
2020/12/10 06:42:08;;;;;;;28.55;10.80;;;2.30;99.90;;;;;;5037763;28;20201;-81
2020/12/10 06:44:35;;;;;;;30.58;11.82;;;2.30;99.90;;;;;;5040406;28;20200;-81
2020/12/10 06:47:01;;;;;;;31.10;10.77;;;2.30;99.90;;;;;;5040969;28;20235;-81
2020/12/10 06:49:31;;;;;;;31.80;13.30;;;2.40;99.90;;;;;;5058843;28;20197;-80
2020/12/10 06:52:19;;;;;;;25.73;10.18;;;2.40;99.90;;;;;;5045960;28;20258;-80
2020/12/10 06:55:04;;;;;;;34.03;11.27;;;2.40;99.90;;;;;;5040861;28;20189;-80
2020/12/10 06:58:14;;;;;;;28.13;11.15;;;2.50;99.90;;;;;;5042073;28;20197;-81
2020/12/10 07:00:47;;;;;;;33.88;11.20;;;2.40;99.90;;;;;;5040558;28;20787;-81
2020/12/10 07:03:19;;;;;;;31.13;11.75;;;2.40;99.90;;;;;;5033369;28;20213;-82
2020/12/10 07:05:45;;;;;;;33.15;11.43;;;2.40;99.90;;;;;;5035811;28;20207;-82
2020/12/10 07:08:14;;;;;;;29.73;11.90;;;2.40;99.90;;;;;;5056971;28;20690;-80
2020/12/10 07:10:49;;;;;;;27.95;10.35;;;2.40;99.90;;;;;;5038257;28;20197;-80
2020/12/10 07:13:30;;;;;;;26.33;11.00;;;2.40;99.90;;;;;;5038214;28;20619;-82
2020/12/10 07:15:56;;;;;;;30.35;11.10;;;2.40;99.90;;;;;;5037257;28;20223;-80
2020/12/10 07:18:22;;;;;;;22.85;9.20;;;2.40;99.90;;;;;;5042265;28;20200;-79
2020/12/10 07:20:47;;;;;;;25.38;10.93;;;2.40;99.90;;;;;;5034926;28;20198;-79
2020/12/10 07:23:13;;;;;;;23.98;10.30;;;2.40;99.90;;;;;;5058914;28;20266;-79
2020/12/10 07:25:39;;;;;;;24.85;11.80;;;2.40;99.90;;;;;;5057269;28;20212;-80
2020/12/10 07:28:04;;;;;;;26.23;12.40;;;2.40;99.90;;;;;;5059946;28;20193;-80
2020/12/10 07:30:31;;;;;;;29.15;11.15;;;2.50;99.90;;;;;;5058144;28;20303;-82
2020/12/10 07:32:59;;;;;;;24.50;9.50;;;2.40;99.90;;;;;;5042066;28;20222;-82
2020/12/10 07:35:36;;;;;;;28.10;10.10;;;2.40;99.90;;;;;;5052532;28;20687;-80
2020/12/10 07:38:12;;;;;;;22.80;9.00;;;2.40;99.90;;;;;;5041021;28;20204;-82
2020/12/10 07:40:41;;;;;;;22.30;9.77;;;2.40;99.90;;;;;;5034927;28;20207;-80
2020/12/10 07:43:08;;;;;;;25.75;9.40;;;2.40;99.90;;;;;;5044295;28;20548;-81
2020/12/10 07:45:35;;;;;;;25.63;9.88;;;2.40;99.90;;;;;;5059515;28;20975;-81
2020/12/10 07:48:03;;;;;;;22.63;9.05;;;2.40;99.90;;;;;;5042852;28;20199;-80
2020/12/10 07:50:31;;;;;;;23.33;9.73;;;2.40;99.90;;;;;;5043170;28;20201;-82
2020/12/10 07:52:58;;;;;;;23.80;9.85;;;2.40;99.90;;;;;;5042454;28;20204;-81
2020/12/10 07:55:28;;;;;;;26.80;9.90;;;2.40;99.90;;;;;;5045981;28;20205;-80
2020/12/10 07:58:03;;;;;;;23.95;9.18;;;2.40;99.90;;;;;;5035214;28;20223;-79
2020/12/10 08:00:31;;;;;;;21.17;9.18;;;2.40;99.90;;;;;;5040490;28;20744;-79
2020/12/10 08:03:03;;;;;;;30.20;9.80;;;2.40;99.90;;;;;;5047766;28;20192;-79
2020/12/10 08:05:29;;;;;;;20.17;8.15;;;2.50;99.90;;;;;;5037041;28;20205;-83
2020/12/10 08:07:56;;;;;;;20.95;8.95;;;2.40;99.90;;;;;;5065101;28;20201;-82
2020/12/10 08:10:34;;;;;;;21.48;9.25;;;2.40;99.90;;;;;;5043515;28;20673;-82
2020/12/10 08:13:13;;;;;;;21.27;8.30;;;2.50;99.90;;;;;;5054503;28;20250;-82
2020/12/10 08:15:40;;;;;;;22.88;8.48;;;2.50;99.90;;;;;;5042991;28;20207;-81
2020/12/10 08:18:07;;;;;;;23.40;9.02;;;2.50;99.90;;;;;;5044710;28;20857;-80
2020/12/10 08:20:37;;;;;;;23.80;9.07;;;2.40;99.90;;;;;;5057888;28;20196;-80
2020/12/10 08:23:02;;;;;;;28.33;9.13;;;2.50;99.90;;;;;;5041077;28;20247;-81
2020/12/10 08:25:28;;;;;;;25.20;9.27;;;2.50;99.90;;;;;;5040172;28;20561;-81
2020/12/10 08:27:54;;;;;;;19.63;8.50;;;2.50;99.90;;;;;;5040854;28;20683;-82
2020/12/10 08:30:20;;;;;;;23.10;8.75;;;2.50;99.90;;;;;;5065292;28;20277;-80
2020/12/10 08:32:53;;;;;;;21.30;8.20;;;2.50;99.90;;;;;;5040934;28;20205;-81
2020/12/10 08:35:20;;;;;;;23.50;8.70;;;2.50;99.90;;;;;;5036697;28;20198;-81
2020/12/10 08:37:46;;;;;;;20.90;8.82;;;2.50;99.90;;;;;;5044887;28;20982;-82
2020/12/10 08:40:21;;;;;;;22.90;8.32;;;2.50;99.90;;;;;;5041148;28;20267;-80
2020/12/10 08:42:47;;;;;;;22.33;8.48;;;2.50;99.90;;;;;;5036113;28;20283;-80
2020/12/10 08:45:12;;;;;;;28.63;10.70;;;2.50;99.90;;;;;;5043411;28;20299;-82
2020/12/10 08:47:38;;;;;;;32.42;9.65;;;2.60;99.90;;;;;;5058736;28;20219;-81
2020/12/10 08:50:27;;;;;;;22.55;9.32;;;2.60;99.90;;;;;;5037885;28;20299;-81
2020/12/10 08:52:59;;;;;;;19.20;8.02;;;2.60;99.90;;;;;;5059628;28;20189;-81
2020/12/10 08:55:49;;;;;;;20.38;9.13;;;2.60;99.90;;;;;;5042112;28;20197;-81
2020/12/10 08:58:19;;;;;;;21.98;9.07;;;2.60;99.90;;;;;;5044542;28;20201;-83
2020/12/10 09:00:47;;;;;;;22.13;9.05;;;2.60;99.90;;;;;;5045907;28;20207;-84
2020/12/10 09:03:16;;;;;;;20.58;8.00;;;2.60;99.90;;;;;;5041271;28;20205;-85
2020/12/10 09:05:43;;;;;;;25.85;8.77;;;2.60;99.90;;;;;;5035827;28;20683;-85
2020/12/10 09:08:09;;;;;;;20.13;8.52;;;2.60;99.90;;;;;;5045595;28;20233;-85
2020/12/10 09:10:35;;;;;;;22.55;8.32;;;2.70;99.90;;;;;;5043201;28;20197;-84
2020/12/10 09:13:01;;;;;;;19.08;8.50;;;2.70;99.90;;;;;;5035172;28;20260;-85
2020/12/10 09:15:28;;;;;;;26.15;9.30;;;2.70;99.90;;;;;;5036093;28;20197;-81
2020/12/10 09:17:54;;;;;;;21.73;10.27;;;2.70;99.90;;;;;;5035710;28;20676;-82
2020/12/10 09:20:20;;;;;;;20.10;8.27;;;2.70;99.90;;;;;;5033980;28;20270;-82
2020/12/10 09:22:46;;;;;;;26.27;8.90;;;2.70;99.90;;;;;;5039982;28;20583;-84
2020/12/10 09:25:15;;;;;;;19.15;8.23;;;2.60;99.90;;;;;;5032315;28;20680;-83
2020/12/10 09:27:41;;;;;;;24.75;8.98;;;2.60;99.90;;;;;;5036584;28;20565;-84
2020/12/10 09:30:08;;;;;;;25.33;8.90;;;2.60;99.90;;;;;;5035254;28;20201;-82
2020/12/10 09:32:35;;;;;;;26.13;8.70;;;2.70;99.90;;;;;;5039243;28;20208;-83
2020/12/10 09:35:04;;;;;;;22.48;9.55;;;2.70;99.90;;;;;;5034919;28;20232;-84
2020/12/10 09:37:29;;;;;;;24.40;8.32;;;2.70;99.90;;;;;;5041571;28;20707;-84
2020/12/10 09:39:58;;;;;;;19.58;7.45;;;2.70;99.90;;;;;;5032509;28;20209;-84
2020/12/10 09:42:24;;;;;;;19.45;8.35;;;2.70;99.90;;;;;;5036517;28;20571;-81
2020/12/10 09:44:50;;;;;;;20.38;8.63;;;2.70;99.90;;;;;;5042072;28;20235;-81
2020/12/10 09:47:15;;;;;;;19.42;8.00;;;2.70;99.90;;;;;;5036839;28;20698;-81
2020/12/10 09:49:41;;;;;;;16.50;8.18;;;2.70;99.90;;;;;;5038881;28;20194;-83
2020/12/10 09:52:08;;;;;;;23.63;8.57;;;2.70;99.90;;;;;;5034395;28;20208;-81
2020/12/10 09:59:53;;;;;;;22.20;7.55;;;2.80;99.90;;;;;;5040804;28;20193;-82
2020/12/10 10:02:18;;;;;;;20.58;7.70;;;2.80;99.90;;;;;;5034011;28;20296;-82
2020/12/10 10:04:44;;;;;;;24.90;8.82;;;2.80;99.90;;;;;;5034588;28;20235;-82
2020/12/10 10:07:17;;;;;;;21.27;7.93;;;2.90;99.90;;;;;;5040000;28;20246;-83
2020/12/10 10:09:43;;;;;;;24.88;8.60;;;2.90;99.90;;;;;;5042810;28;20212;-84
2020/12/10 10:12:10;;;;;;;21.23;8.73;;;2.90;99.90;;;;;;5039346;28;20666;-84
2020/12/10 10:14:38;;;;;;;20.90;8.57;;;2.90;99.90;;;;;;5034749;28;20197;-84
2020/12/10 10:17:06;;;;;;;25.83;7.65;;;2.80;99.90;;;;;;5037297;28;20209;-84
2020/12/10 10:19:32;;;;;;;19.73;7.95;;;2.90;99.90;;;;;;5039446;28;20569;-83
2020/12/10 10:21:58;;;;;;;20.13;8.18;;;2.80;99.90;;;;;;5040479;28;20701;-83
2020/12/10 10:24:24;;;;;;;19.90;7.80;;;2.90;99.90;;;;;;5037354;28;20738;-82
2020/12/10 10:26:52;;;;;;;23.98;8.18;;;2.90;99.90;;;;;;5037069;28;20201;-83
2020/12/10 10:29:21;;;;;;;20.33;8.07;;;2.90;99.90;;;;;;5037830;28;20205;-83
2020/12/10 10:31:51;;;;;;;23.83;7.13;;;2.90;99.90;;;;;;5039582;28;20197;-79
2020/12/10 10:34:17;;;;;;;20.92;7.47;;;2.90;99.90;;;;;;5041928;28;20557;-79
2020/12/10 10:36:43;;;;;;;22.70;8.15;;;2.90;99.90;;;;;;5038574;28;20232;-80
2020/12/10 10:39:10;;;;;;;20.83;7.65;;;3.00;99.90;;;;;;5046969;28;20723;-80
2020/12/10 10:41:40;;;;;;;19.73;7.57;;;3.00;99.90;;;;;;5045636;28;20232;-80
2020/12/10 10:44:06;;;;;;;22.30;7.97;;;3.00;99.90;;;;;;5046571;28;20216;-79
2020/12/10 10:46:32;;;;;;;20.05;7.95;;;3.00;99.90;;;;;;5046135;28;20201;-80
2020/12/10 10:49:01;;;;;;;17.92;7.40;;;2.90;99.90;;;;;;5047890;28;20581;-79
2020/12/10 10:51:27;;;;;;;22.67;8.35;;;2.90;99.90;;;;;;5038454;28;20247;-80
2020/12/10 10:53:53;;;;;;;17.25;7.63;;;2.90;99.90;;;;;;5033837;28;20194;-82
2020/12/10 10:56:23;;;;;;;17.80;7.93;;;2.90;99.90;;;;;;5037611;28;20201;-81
2020/12/10 10:58:49;;;;;;;16.05;7.18;;;2.90;99.90;;;;;;5034967;28;20217;-82
2020/12/10 11:01:16;;;;;;;21.55;7.63;;;2.90;99.90;;;;;;5038446;28;20243;-81
2020/12/10 11:03:42;;;;;;;17.50;7.38;;;2.90;99.90;;;;;;5035255;28;20291;-80
2020/12/10 11:06:09;;;;;;;22.48;8.38;;;3.00;99.90;;;;;;5038611;28;20209;-80
2020/12/10 11:08:34;;;;;;;21.13;7.65;;;3.00;99.90;;;;;;5036694;28;20200;-79
2020/12/10 11:11:00;;;;;;;17.88;7.15;;;3.00;99.90;;;;;;5040567;28;20643;-80
2020/12/10 11:13:26;;;;;;;23.10;7.47;;;3.00;99.90;;;;;;5065341;28;20226;-81
2020/12/10 11:15:52;;;;;;;16.67;7.35;;;3.00;99.90;;;;;;5051218;28;20201;-81
2020/12/10 11:18:21;;;;;;;18.35;9.20;;;3.00;99.90;;;;;;5049410;28;20188;-82
2020/12/10 11:20:46;;;;;;;20.98;8.85;;;3.00;99.90;;;;;;5069406;28;20193;-82
2020/12/10 11:23:13;;;;;;;15.00;7.20;;;2.90;99.90;;;;;;5049511;28;20212;-82
2020/12/10 11:25:40;;;;;;;18.02;7.38;;;3.00;99.90;;;;;;5066063;28;20289;-81
2020/12/10 11:28:08;;;;;;;21.58;8.20;;;3.00;99.90;;;;;;5063632;28;20610;-83
2020/12/10 11:30:34;;;;;;;23.05;7.30;;;2.90;99.90;;;;;;5032354;28;20194;-81
2020/12/10 11:32:59;;;;;;;17.15;6.97;;;3.00;99.90;;;;;;5063799;28;20596;-82
2020/12/10 11:35:25;;;;;;;16.33;6.38;;;3.00;99.90;;;;;;5029491;28;20198;-80
2020/12/10 11:37:55;;;;;;;18.08;6.93;;;2.90;99.90;;;;;;5053424;28;20252;-81
2020/12/10 11:40:24;;;;;;;14.85;6.60;;;2.90;99.90;;;;;;5041623;28;21274;-81
2020/12/10 11:42:50;;;;;;;14.38;6.47;;;2.90;99.90;;;;;;5055500;28;20227;-81
2020/12/10 11:45:17;;;;;;;15.80;7.05;;;2.90;99.90;;;;;;5046261;28;20231;-82
2020/12/10 11:47:46;;;;;;;21.67;7.68;;;2.90;99.90;;;;;;5039975;28;20197;-82
2020/12/10 11:50:18;;;;;;;16.48;6.55;;;2.90;99.90;;;;;;5033060;28;20192;-80
2020/12/10 11:52:48;;;;;;;17.38;6.85;;;2.90;99.90;;;;;;5032718;28;20233;-79
2020/12/10 11:55:14;;;;;;;12.25;6.35;;;2.90;99.90;;;;;;5036404;28;20690;-79
2020/12/10 11:57:40;;;;;;;21.70;7.43;;;2.90;99.90;;;;;;5033136;28;20222;-79
2020/12/10 12:00:06;;;;;;;15.50;6.70;;;2.90;99.90;;;;;;5060558;28;20603;-79
2020/12/10 12:02:32;;;;;;;20.48;7.35;;;3.00;99.90;;;;;;5043098;28;20760;-79
2020/12/10 12:04:58;;;;;;;16.73;6.78;;;3.00;99.90;;;;;;5059666;28;20299;-79
2020/12/10 12:07:23;;;;;;;15.35;6.97;;;3.00;99.90;;;;;;5054611;28;20271;-79
2020/12/10 12:09:49;;;;;;;15.40;6.75;;;3.00;99.90;;;;;;5039613;28;21401;-79
2020/12/10 12:12:15;;;;;;;16.05;7.13;;;3.00;99.90;;;;;;5041334;28;20240;-79
2020/12/10 12:14:40;;;;;;;15.68;6.70;;;3.00;99.90;;;;;;5052012;28;20201;-79
2020/12/10 12:17:06;;;;;;;16.73;6.82;;;2.90;99.90;;;;;;5043648;28;20276;-79
2020/12/10 12:19:32;;;;;;;13.63;6.65;;;2.90;99.90;;;;;;5054066;28;20579;-79
2020/12/10 12:22:02;;;;;;;18.15;7.22;;;2.80;99.90;;;;;;5040188;28;20745;-81
2020/12/10 12:24:29;;;;;;;18.30;7.47;;;2.80;99.90;;;;;;5057822;28;20216;-82
2020/12/10 12:26:54;;;;;;;15.00;7.15;;;2.70;99.90;;;;;;5042109;28;20197;-82
2020/12/10 12:29:20;;;;;;;15.82;6.85;;;2.70;99.90;;;;;;5039910;28;20203;-82
2020/12/10 12:31:46;;;;;;;14.50;7.35;;;2.80;99.90;;;;;;5038960;28;20211;-80
2020/12/10 12:34:12;;;;;;;19.02;7.28;;;2.80;99.90;;;;;;5055007;28;20205;-80
2020/12/10 12:36:38;;;;;;;14.75;7.03;;;2.80;99.90;;;;;;5043949;28;20197;-80
2020/12/10 12:39:05;;;;;;;19.95;6.85;;;2.70;99.90;;;;;;5043913;28;20238;-79
2020/12/10 12:41:32;;;;;;;15.75;6.97;;;2.80;99.90;;;;;;5054763;28;20254;-82
2020/12/10 12:43:59;;;;;;;13.10;6.28;;;2.70;99.90;;;;;;5035804;28;20189;-81
2020/12/10 12:46:25;;;;;;;16.90;6.68;;;2.70;99.90;;;;;;5046406;28;20232;-80
2020/12/10 12:48:53;;;;;;;16.88;7.13;;;2.70;99.90;;;;;;5038400;28;20287;-79